Time;durP1;ratioP1;P1;durP2;ratioP2;P2;SDS_P1;SDS_P2;PMS_P1;PMS_P2;Temp;Humidity;BMP_temperature;BMP_pressure;BME280_temperature;BME280_humidity;BME280_pressure;Samples;Min_cycle;Max_cycle;Signal;HPM_P1;HPM_P2
2021/06/04 00:00:35;;;;;;;12.55;9.95;;;17.50;88.80;;;;;;5019969;28;20052;-70
2021/06/04 00:03:14;;;;;;;11.75;9.80;;;17.50;89.00;;;;;;5019974;28;20463;-70
2021/06/04 00:05:46;;;;;;;9.88;8.95;;;17.50;88.80;;;;;;5019812;28;20101;-70
2021/06/04 00:08:13;;;;;;;15.30;9.45;;;17.50;88.80;;;;;;5019731;28;20022;-70
2021/06/04 00:10:43;;;;;;;11.75;9.07;;;17.40;89.20;;;;;;5019743;28;20026;-70
2021/06/04 00:13:30;;;;;;;13.45;10.48;;;17.30;89.30;;;;;;5020069;28;20021;-70
2021/06/04 00:16:11;;;;;;;11.63;9.85;;;17.40;89.40;;;;;;5020117;28;20326;-71
2021/06/04 00:18:40;;;;;;;14.18;10.02;;;17.30;89.50;;;;;;5019668;28;20030;-71
2021/06/04 00:21:09;;;;;;;11.63;10.50;;;17.30;89.70;;;;;;5019237;28;20050;-71
2021/06/04 00:23:35;;;;;;;13.10;11.73;;;17.30;90.10;;;;;;5019565;28;20482;-70
2021/06/04 00:26:02;;;;;;;11.68;10.45;;;17.30;90.10;;;;;;5019719;28;20322;-70
2021/06/04 00:28:28;;;;;;;11.15;9.75;;;17.30;90.00;;;;;;5019279;28;20030;-72
2021/06/04 00:30:54;;;;;;;12.40;11.15;;;17.30;89.90;;;;;;5019393;28;20025;-70
2021/06/04 00:33:21;;;;;;;11.15;10.05;;;17.40;90.20;;;;;;5019650;28;20026;-70
2021/06/04 00:35:47;;;;;;;11.77;9.98;;;17.40;90.20;;;;;;5019562;28;20414;-70
2021/06/04 00:38:12;;;;;;;12.07;10.85;;;17.40;90.10;;;;;;5019227;28;20079;-70
2021/06/04 00:40:41;;;;;;;12.38;9.55;;;17.30;89.90;;;;;;5019536;28;20108;-70
2021/06/04 00:43:08;;;;;;;12.13;10.90;;;17.40;89.10;;;;;;5019445;28;20318;-69
2021/06/04 00:45:38;;;;;;;12.07;10.88;;;17.40;89.10;;;;;;5019521;28;20038;-71
2021/06/04 00:48:05;;;;;;;11.77;9.88;;;17.40;88.90;;;;;;5018995;28;20041;-71
2021/06/04 00:50:58;;;;;;;12.80;10.43;;;17.40;88.00;;;;;;5017826;28;20414;-70
2021/06/04 00:53:25;;;;;;;15.85;11.05;;;17.50;87.60;;;;;;5019297;28;20022;-70
2021/06/04 00:55:52;;;;;;;13.40;11.70;;;17.70;86.30;;;;;;5018874;28;20034;-70
2021/06/04 00:58:24;;;;;;;13.15;11.45;;;17.80;85.80;;;;;;5019186;28;20034;-70
2021/06/04 01:00:53;;;;;;;13.63;11.70;;;17.90;85.10;;;;;;5018863;28;20037;-70
2021/06/04 01:03:22;;;;;;;12.00;10.77;;;18.10;84.50;;;;;;5019107;28;20097;-70
2021/06/04 01:05:48;;;;;;;13.60;9.90;;;18.20;84.70;;;;;;5018676;28;20026;-70
2021/06/04 01:08:23;;;;;;;11.23;9.63;;;18.30;84.10;;;;;;5018877;28;20036;-70
2021/06/04 01:11:09;;;;;;;12.03;10.00;;;18.40;84.00;;;;;;5019038;28;20026;-70
2021/06/04 01:13:53;;;;;;;12.55;9.63;;;18.30;83.50;;;;;;5018667;28;20260;-70
2021/06/04 01:16:24;;;;;;;11.07;8.93;;;18.20;83.70;;;;;;5018767;28;20044;-70
2021/06/04 01:19:18;;;;;;;11.70;8.05;;;18.20;84.20;;;;;;5018487;28;20029;-70
2021/06/04 01:21:53;;;;;;;10.40;8.82;;;18.10;84.70;;;;;;5018344;28;20049;-70
2021/06/04 01:24:43;;;;;;;9.10;8.13;;;18.00;85.00;;;;;;5018733;28;20042;-70
2021/06/04 01:27:13;;;;;;;14.48;9.18;;;18.00;85.00;;;;;;5018358;28;20124;-70
2021/06/04 01:29:59;;;;;;;9.55;8.02;;;18.00;84.80;;;;;;5018558;28;20056;-70
2021/06/04 01:32:29;;;;;;;10.88;9.23;;;18.00;85.40;;;;;;5018249;28;20088;-70
2021/06/04 01:35:01;;;;;;;16.05;8.57;;;17.90;85.60;;;;;;5018147;28;20379;-70
2021/06/04 01:37:31;;;;;;;12.48;9.52;;;17.80;86.10;;;;;;5018495;28;20355;-70
2021/06/04 01:40:05;;;;;;;15.95;10.07;;;17.80;86.50;;;;;;5018150;28;20045;-70
2021/06/04 01:42:35;;;;;;;11.45;9.70;;;17.80;86.80;;;;;;5018370;28;20029;-70
2021/06/04 01:45:07;;;;;;;12.52;11.23;;;17.80;86.70;;;;;;5018354;28;20080;-70
2021/06/04 01:47:37;;;;;;;15.32;11.15;;;17.90;86.30;;;;;;5018303;28;20092;-70
2021/06/04 01:50:14;;;;;;;13.27;9.85;;;17.90;86.40;;;;;;5019001;28;20076;-70
2021/06/04 01:52:42;;;;;;;12.30;8.85;;;18.00;86.40;;;;;;5017853;28;20080;-71
2021/06/04 01:55:13;;;;;;;12.32;11.00;;;17.90;86.60;;;;;;5017794;28;20018;-70
2021/06/04 01:57:43;;;;;;;14.02;10.23;;;17.90;86.50;;;;;;5017812;28;20030;-70
2021/06/04 02:00:33;;;;;;;12.43;11.10;;;17.80;86.90;;;;;;5017797;28;20026;-70
2021/06/04 02:02:59;;;;;;;12.50;11.23;;;17.70;87.10;;;;;;5017273;28;20338;-70
2021/06/04 02:05:32;;;;;;;12.18;10.85;;;17.70;87.00;;;;;;5017907;28;20030;-70
2021/06/04 02:07:59;;;;;;;11.55;10.07;;;17.70;85.90;;;;;;5017885;28;20053;-71
2021/06/04 02:10:32;;;;;;;11.23;10.02;;;17.80;85.70;;;;;;5017555;28;20109;-70
2021/06/04 02:12:58;;;;;;;11.65;9.55;;;17.90;85.40;;;;;;5017610;28;20026;-70
2021/06/04 02:15:29;;;;;;;12.90;9.15;;;18.00;84.90;;;;;;5017478;28;20303;-70
2021/06/04 02:18:01;;;;;;;11.57;8.75;;;18.00;85.00;;;;;;5017746;28;20037;-70
2021/06/04 02:20:36;;;;;;;11.45;10.35;;;18.00;84.90;;;;;;5017180;28;20042;-70
2021/06/04 02:23:16;;;;;;;8.73;7.93;;;17.90;85.00;;;;;;5017364;28;20026;-70
2021/06/04 02:25:48;;;;;;;9.27;8.48;;;17.90;85.50;;;;;;5017616;28;20104;-70
2021/06/04 02:28:18;;;;;;;12.35;10.65;;;17.80;85.70;;;;;;5017537;28;20050;-70
2021/06/04 02:30:54;;;;;;;11.45;10.15;;;17.80;85.50;;;;;;5017273;28;20030;-70
2021/06/04 02:33:36;;;;;;;12.20;10.88;;;17.90;85.10;;;;;;5017229;28;20026;-70
2021/06/04 02:36:25;;;;;;;15.15;10.95;;;17.90;85.00;;;;;;5017137;28;20042;-70
2021/06/04 02:38:56;;;;;;;12.98;11.77;;;17.90;84.90;;;;;;5017176;28;20414;-70
2021/06/04 02:41:39;;;;;;;13.52;12.18;;;17.90;84.60;;;;;;5017418;28;20303;-70
2021/06/04 02:44:16;;;;;;;13.73;12.23;;;17.90;84.30;;;;;;5017891;28;20061;-70
2021/06/04 02:46:58;;;;;;;13.18;10.80;;;18.00;84.20;;;;;;5016979;28;20109;-70
2021/06/04 02:49:26;;;;;;;11.77;10.68;;;18.10;83.70;;;;;;5017256;28;20354;-70
2021/06/04 02:51:54;;;;;;;11.80;10.50;;;18.20;83.70;;;;;;5017230;28;20357;-70
2021/06/04 02:54:25;;;;;;;10.45;9.40;;;18.20;84.10;;;;;;5016985;28;20428;-70
2021/06/04 02:57:03;;;;;;;12.05;9.38;;;18.20;84.50;;;;;;5017277;28;20026;-70
2021/06/04 02:59:33;;;;;;;16.13;10.90;;;18.20;84.70;;;;;;5016820;28;20034;-70
2021/06/04 03:02:02;;;;;;;14.60;9.88;;;18.10;84.60;;;;;;5017181;28;20076;-70
2021/06/04 03:04:32;;;;;;;11.38;9.40;;;18.00;84.90;;;;;;5016804;28;20034;-70
2021/06/04 03:07:06;;;;;;;10.85;9.48;;;17.90;85.40;;;;;;5016791;28;20117;-70
2021/06/04 03:09:35;;;;;;;14.52;10.95;;;17.80;86.10;;;;;;5017012;28;20049;-70
2021/06/04 03:12:06;;;;;;;12.77;11.52;;;17.70;86.50;;;;;;5017005;28;20018;-70
2021/06/04 03:14:32;;;;;;;12.00;10.80;;;17.60;87.10;;;;;;5020040;28;20345;-70
2021/06/04 03:16:59;;;;;;;14.20;12.57;;;17.50;86.50;;;;;;5020831;28;20030;-70
2021/06/04 03:19:26;;;;;;;13.38;12.05;;;17.50;85.90;;;;;;5020689;28;20492;-70
2021/06/04 03:21:56;;;;;;;14.70;11.48;;;17.70;85.50;;;;;;5020572;28;20049;-70
2021/06/04 03:24:32;;;;;;;13.23;11.85;;;17.90;84.70;;;;;;5020713;28;20030;-70
2021/06/04 03:26:59;;;;;;;15.55;12.40;;;18.10;84.20;;;;;;5020538;28;20033;-70
2021/06/04 03:29:24;;;;;;;15.45;13.70;;;18.20;83.50;;;;;;5020484;28;20041;-70
2021/06/04 03:31:54;;;;;;;15.82;14.10;;;18.30;83.10;;;;;;5020810;28;20299;-70
2021/06/04 03:34:22;;;;;;;18.27;14.43;;;18.30;83.10;;;;;;5020564;28;20040;-70
2021/06/04 03:36:50;;;;;;;14.05;12.68;;;18.40;83.00;;;;;;5020348;28;20441;-70
2021/06/04 03:39:23;;;;;;;15.93;12.60;;;18.40;82.80;;;;;;5020367;28;20156;-70
2021/06/04 03:41:51;;;;;;;13.90;12.45;;;18.40;82.60;;;;;;5020347;28;20064;-70
2021/06/04 03:44:19;;;;;;;14.48;13.07;;;18.60;82.30;;;;;;5020340;28;20030;-70
2021/06/04 03:46:45;;;;;;;15.27;13.73;;;18.60;82.10;;;;;;5020173;28;20483;-70
2021/06/04 03:49:12;;;;;;;14.85;13.25;;;18.70;81.80;;;;;;5020476;28;20029;-70
2021/06/04 03:51:39;;;;;;;14.35;12.60;;;18.70;81.60;;;;;;5020460;28;20333;-70
2021/06/04 03:54:08;;;;;;;13.25;11.77;;;18.70;81.00;;;;;;5020495;28;20028;-70
2021/06/04 03:56:36;;;;;;;14.60;12.02;;;18.80;81.40;;;;;;5019910;28;20030;-70
2021/06/04 03:59:03;;;;;;;13.00;11.80;;;18.80;81.00;;;;;;5020358;28;20076;-70
2021/06/04 04:01:40;;;;;;;12.32;9.85;;;18.80;81.00;;;;;;5019786;28;20061;-70
2021/06/04 04:04:06;;;;;;;11.85;9.95;;;18.90;81.40;;;;;;5019841;28;20377;-70
2021/06/04 04:06:32;;;;;;;10.85;9.75;;;18.80;82.10;;;;;;5020138;28;20083;-70
2021/06/04 04:08:58;;;;;;;14.73;13.23;;;18.80;81.90;;;;;;5020041;28;20326;-70
2021/06/04 04:11:24;;;;;;;13.57;12.18;;;18.70;81.70;;;;;;5019770;28;20030;-70
2021/06/04 04:13:50;;;;;;;15.02;12.57;;;18.70;82.40;;;;;;5020063;28;20479;-70
2021/06/04 04:16:16;;;;;;;12.95;11.63;;;18.70;82.90;;;;;;5019938;28;20136;-70
2021/06/04 04:18:42;;;;;;;14.65;13.32;;;18.70;83.60;;;;;;5019580;28;20030;-70
2021/06/04 04:21:11;;;;;;;12.32;11.05;;;18.70;84.30;;;;;;5019542;28;20069;-70
2021/06/04 04:23:43;;;;;;;12.07;10.18;;;18.70;83.60;;;;;;5019587;28;20037;-70
2021/06/04 04:26:13;;;;;;;14.57;9.80;;;18.70;83.80;;;;;;5019730;28;20318;-70
2021/06/04 04:28:41;;;;;;;12.93;11.68;;;18.60;84.00;;;;;;5019427;28;20439;-70
2021/06/04 04:31:10;;;;;;;14.07;9.73;;;18.60;84.00;;;;;;5019409;28;20030;-70
2021/06/04 04:33:35;;;;;;;11.35;10.18;;;18.60;84.80;;;;;;5019404;28;20423;-70
2021/06/04 04:36:03;;;;;;;14.00;11.68;;;18.60;85.00;;;;;;5019604;28;20052;-70
2021/06/04 04:38:29;;;;;;;14.30;11.23;;;18.60;84.40;;;;;;5019264;28;20033;-70
2021/06/04 04:41:02;;;;;;;12.40;11.20;;;18.50;85.60;;;;;;5019577;28;20026;-70
2021/06/04 04:43:31;;;;;;;14.93;12.75;;;18.60;86.40;;;;;;5019518;28;20041;-70
2021/06/04 04:45:57;;;;;;;11.55;10.50;;;18.60;83.20;;;;;;5019445;28;20030;-70
2021/06/04 04:48:23;;;;;;;11.35;10.25;;;18.70;83.80;;;;;;5019311;28;20044;-70
2021/06/04 04:50:50;;;;;;;9.85;8.95;;;18.70;83.10;;;;;;5019345;28;20034;-70
2021/06/04 04:53:16;;;;;;;10.15;9.18;;;18.80;80.80;;;;;;5019043;28;20029;-70
2021/06/04 04:55:42;;;;;;;11.50;9.63;;;18.80;80.50;;;;;;5019230;28;20026;-70
2021/06/04 04:58:09;;;;;;;11.30;9.65;;;18.80;80.50;;;;;;5019182;28;20021;-70
2021/06/04 05:00:37;;;;;;;11.60;8.63;;;18.90;80.70;;;;;;5018848;28;20025;-70
2021/06/04 05:03:04;;;;;;;10.50;8.88;;;19.00;79.50;;;;;;5018870;28;20029;-70
2021/06/04 05:05:31;;;;;;;10.10;9.02;;;19.10;79.30;;;;;;5019029;28;20311;-70
2021/06/04 05:07:57;;;;;;;10.55;9.52;;;19.10;79.50;;;;;;5018940;28;20024;-70
2021/06/04 05:10:23;;;;;;;13.07;9.73;;;19.20;79.40;;;;;;5018673;28;20485;-70
2021/06/04 05:12:49;;;;;;;14.65;9.63;;;19.40;78.60;;;;;;5018942;28;20041;-70
2021/06/04 05:15:19;;;;;;;11.45;9.40;;;19.60;79.20;;;;;;5018824;28;20315;-70
2021/06/04 05:17:46;;;;;;;11.18;9.20;;;19.70;78.30;;;;;;5018538;28;20038;-70
2021/06/04 05:20:12;;;;;;;13.73;8.80;;;19.80;78.40;;;;;;5018276;28;20073;-70
2021/06/04 05:22:39;;;;;;;12.05;10.48;;;19.90;78.60;;;;;;5018723;28;20034;-70
2021/06/04 05:25:07;;;;;;;10.77;9.77;;;20.00;77.40;;;;;;5018651;28;20393;-70
2021/06/04 05:27:33;;;;;;;13.93;10.30;;;20.30;77.60;;;;;;5018357;28;20040;-70
2021/06/04 05:29:58;;;;;;;12.27;9.52;;;20.50;76.90;;;;;;5018271;28;20113;-70
2021/06/04 05:32:24;;;;;;;10.63;9.63;;;20.80;77.20;;;;;;5018287;28;20056;-70
2021/06/04 05:34:50;;;;;;;13.25;9.82;;;21.00;75.80;;;;;;5018272;28;20069;-70
2021/06/04 05:37:16;;;;;;;10.30;9.30;;;21.10;75.60;;;;;;5017564;28;20022;-70
2021/06/04 05:39:42;;;;;;;10.18;9.02;;;21.20;76.40;;;;;;5018491;28;20021;-70
2021/06/04 05:42:08;;;;;;;10.20;9.30;;;21.30;75.00;;;;;;5018075;28;20525;-70
2021/06/04 05:44:37;;;;;;;10.20;8.65;;;21.40;74.60;;;;;;5018159;28;20018;-70
2021/06/04 05:47:11;;;;;;;9.55;8.35;;;21.50;75.00;;;;;;5018327;28;20038;-70
2021/06/04 05:49:37;;;;;;;12.30;9.27;;;21.80;74.70;;;;;;5018262;28;20117;-70
2021/06/04 05:52:08;;;;;;;11.93;7.97;;;22.00;72.80;;;;;;5017936;28;20085;-70
2021/06/04 05:54:37;;;;;;;8.70;7.75;;;22.00;73.30;;;;;;5017836;28;20076;-70
2021/06/04 05:57:04;;;;;;;8.88;6.00;;;22.20;73.70;;;;;;5018145;28;20022;-70
2021/06/04 05:59:30;;;;;;;12.85;8.88;;;22.70;73.80;;;;;;5017800;28;20033;-70
2021/06/04 06:01:56;;;;;;;12.25;8.02;;;23.10;70.80;;;;;;5018036;28;20026;-70
2021/06/04 06:04:22;;;;;;;7.03;6.32;;;23.30;70.30;;;;;;5018073;28;20044;-70
2021/06/04 06:06:47;;;;;;;9.75;7.00;;;23.40;71.20;;;;;;5017876;28;20030;-70
2021/06/04 06:09:13;;;;;;;8.07;6.65;;;23.50;71.50;;;;;;5017540;28;20441;-70
2021/06/04 06:11:39;;;;;;;6.82;5.60;;;23.70;71.90;;;;;;5017885;28;20044;-70
2021/06/04 06:14:07;;;;;;;6.38;5.63;;;23.90;71.90;;;;;;5017799;28;20042;-70
2021/06/04 06:16:33;;;;;;;9.32;6.63;;;24.40;70.10;;;;;;5017546;28;20030;-70
2021/06/04 06:18:59;;;;;;;9.80;6.20;;;24.80;68.90;;;;;;5017761;28;20122;-70
2021/06/04 06:21:26;;;;;;;6.28;5.68;;;25.20;69.00;;;;;;5017216;28;20438;-70
2021/06/04 06:23:52;;;;;;;9.52;5.82;;;25.20;68.90;;;;;;5017692;28;20034;-70
2021/06/04 06:26:23;;;;;;;5.85;4.78;;;25.40;68.60;;;;;;5017323;28;20029;-70
2021/06/04 06:28:51;;;;;;;6.82;5.40;;;25.80;68.70;;;;;;5017268;28;20034;-70
2021/06/04 06:31:21;;;;;;;7.45;5.40;;;26.10;68.50;;;;;;5017190;28;20072;-70
2021/06/04 06:33:48;;;;;;;6.70;5.70;;;26.10;67.80;;;;;;5017270;28;20026;-70
2021/06/04 06:36:19;;;;;;;9.32;6.45;;;26.20;67.60;;;;;;5017105;28;20026;-70
2021/06/04 06:38:48;;;;;;;8.38;6.40;;;26.40;65.60;;;;;;5017194;28;20096;-70
2021/06/04 06:41:14;;;;;;;14.10;7.60;;;26.60;64.00;;;;;;5017114;28;20033;-70
2021/06/04 06:43:44;;;;;;;9.50;6.25;;;26.70;64.80;;;;;;5017114;28;20105;-70
2021/06/04 06:46:10;;;;;;;8.48;6.50;;;26.80;64.80;;;;;;5017509;28;20033;-70
2021/06/04 06:48:36;;;;;;;9.23;6.43;;;26.80;64.00;;;;;;5016069;28;20030;-70
2021/06/04 06:51:02;;;;;;;8.48;5.15;;;26.90;63.90;;;;;;5017305;28;20029;-70
2021/06/04 06:53:28;;;;;;;7.75;6.03;;;27.00;64.60;;;;;;5017308;28;20026;-70
2021/06/04 06:55:56;;;;;;;6.95;4.30;;;27.10;65.30;;;;;;5017212;28;20472;-70
2021/06/04 06:58:26;;;;;;;7.63;6.18;;;27.30;65.80;;;;;;5016970;28;20104;-70
2021/06/04 07:00:54;;;;;;;12.55;5.10;;;27.00;64.60;;;;;;5016903;28;20030;-70
2021/06/04 07:03:27;;;;;;;6.60;5.85;;;27.30;65.60;;;;;;5016879;28;20033;-70
2021/06/04 07:05:55;;;;;;;6.82;6.15;;;27.00;65.20;;;;;;5017138;28;20030;-70
2021/06/04 07:08:22;;;;;;;12.73;6.03;;;26.60;66.30;;;;;;5016732;28;20121;-70
2021/06/04 07:10:48;;;;;;;9.35;6.25;;;26.10;68.60;;;;;;5016808;28;20398;-70
2021/06/04 07:13:16;;;;;;;12.80;7.13;;;26.00;66.90;;;;;;5017159;28;20322;-70
2021/06/04 07:15:43;;;;;;;6.88;6.18;;;25.80;66.70;;;;;;5017511;28;20314;-70
2021/06/04 07:18:10;;;;;;;9.13;6.10;;;25.50;67.80;;;;;;5017086;28;20026;-70
2021/06/04 07:20:38;;;;;;;11.77;7.30;;;25.30;68.40;;;;;;5016719;28;20037;-70
2021/06/04 07:23:07;;;;;;;9.82;7.80;;;25.30;67.80;;;;;;5017004;28;20462;-70
2021/06/04 07:25:36;;;;;;;9.85;6.63;;;25.50;67.60;;;;;;5016612;28;20018;-70
2021/06/04 07:28:03;;;;;;;9.93;6.90;;;25.50;68.90;;;;;;5016911;28;20030;-70
2021/06/04 07:30:32;;;;;;;8.82;7.53;;;25.70;66.30;;;;;;5016618;28;20422;-70
2021/06/04 07:33:01;;;;;;;7.60;6.15;;;25.70;66.20;;;;;;5016622;28;20433;-70
2021/06/04 07:35:29;;;;;;;7.93;6.43;;;26.30;66.50;;;;;;5016819;28;20040;-70
2021/06/04 07:37:56;;;;;;;8.02;6.53;;;26.70;65.60;;;;;;5016856;28;20065;-70
2021/06/04 07:40:26;;;;;;;7.22;6.47;;;27.00;64.50;;;;;;5016553;28;20041;-70
2021/06/04 07:42:52;;;;;;;11.07;6.57;;;27.70;62.40;;;;;;5016808;28;20034;-70
2021/06/04 07:45:21;;;;;;;8.77;6.20;;;27.90;61.90;;;;;;5016467;28;20026;-70
2021/06/04 07:47:47;;;;;;;8.65;6.45;;;28.10;62.10;;;;;;5016475;28;20037;-70
2021/06/04 07:50:14;;;;;;;10.38;6.43;;;28.30;61.10;;;;;;5016694;28;20030;-70
2021/06/04 07:52:40;;;;;;;8.82;6.82;;;28.60;61.60;;;;;;5016375;28;20029;-70
2021/06/04 07:55:09;;;;;;;9.30;6.38;;;28.80;59.60;;;;;;5016645;28;20097;-70
2021/06/04 07:57:35;;;;;;;12.55;7.10;;;28.90;60.30;;;;;;5016651;28;20318;-70
2021/06/04 08:00:03;;;;;;;9.38;7.47;;;29.20;59.60;;;;;;5018543;28;20034;-70
2021/06/04 08:02:29;;;;;;;7.28;6.65;;;29.20;58.10;;;;;;5020311;28;20036;-70
2021/06/04 08:04:55;;;;;;;8.13;6.80;;;29.30;59.20;;;;;;5019958;28;20374;-70
2021/06/04 08:07:20;;;;;;;9.60;6.05;;;29.20;59.90;;;;;;5020242;28;20076;-70
2021/06/04 08:09:47;;;;;;;9.38;6.75;;;29.40;59.70;;;;;;5020102;28;20410;-70
2021/06/04 08:12:15;;;;;;;9.13;6.60;;;29.70;60.30;;;;;;5020079;28;20077;-70
2021/06/04 08:14:41;;;;;;;7.82;6.35;;;29.50;60.70;;;;;;5020082;28;20100;-70
2021/06/04 08:17:08;;;;;;;7.28;6.57;;;29.40;62.50;;;;;;5020030;28;20046;-70
2021/06/04 08:19:36;;;;;;;9.05;6.10;;;29.50;59.90;;;;;;5019968;28;20025;-70
2021/06/04 08:22:06;;;;;;;7.90;7.07;;;30.00;58.40;;;;;;5019497;28;20045;-70
2021/06/04 08:24:34;;;;;;;9.40;7.13;;;30.10;58.10;;;;;;5019583;28;20105;-70
2021/06/04 08:27:01;;;;;;;8.20;6.57;;;30.10;59.00;;;;;;5019828;28;20026;-70
2021/06/04 08:29:30;;;;;;;9.55;7.32;;;29.80;57.50;;;;;;5019687;28;20053;-70
2021/06/04 08:31:56;;;;;;;7.45;6.40;;;29.90;57.50;;;;;;5019739;28;20038;-70
2021/06/04 08:34:22;;;;;;;9.50;7.03;;;29.80;59.30;;;;;;5019740;28;20026;-70
2021/06/04 08:36:48;;;;;;;10.82;6.28;;;29.80;59.80;;;;;;5019289;28;20326;-70
2021/06/04 08:39:19;;;;;;;8.07;6.40;;;29.90;57.90;;;;;;5019354;28;20028;-70
2021/06/04 08:42:06;;;;;;;9.75;7.20;;;30.00;59.90;;;;;;5019672;28;20041;-70
2021/06/04 08:44:54;;;;;;;7.90;6.50;;;29.90;58.80;;;;;;5019328;28;20038;-70
2021/06/04 08:47:26;;;;;;;10.13;6.95;;;29.90;57.00;;;;;;5019493;28;20326;-70
2021/06/04 08:50:13;;;;;;;7.82;6.40;;;29.90;56.00;;;;;;5019358;28;20026;-70
2021/06/04 08:52:51;;;;;;;6.38;5.32;;;29.90;57.20;;;;;;5019073;28;20109;-70
2021/06/04 08:55:49;;;;;;;7.93;6.13;;;30.00;58.20;;;;;;5019257;28;20026;-70
2021/06/04 08:58:42;;;;;;;7.05;6.35;;;29.90;57.30;;;;;;5017949;28;20026;-70
2021/06/04 09:01:19;;;;;;;10.10;6.07;;;29.90;56.40;;;;;;5018895;28;20402;-70
2021/06/04 09:03:55;;;;;;;6.95;6.15;;;29.90;58.00;;;;;;5018883;28;20029;-70
2021/06/04 09:06:36;;;;;;;8.93;6.43;;;30.10;56.60;;;;;;5018840;28;20046;-70
2021/06/04 09:09:27;;;;;;;7.53;6.72;;;30.10;59.10;;;;;;5019043;28;20022;-70
2021/06/04 09:11:57;;;;;;;8.80;7.13;;;30.00;57.10;;;;;;5017764;28;20133;-70
2021/06/04 09:14:23;;;;;;;9.30;6.10;;;29.90;57.40;;;;;;5018666;28;20038;-70
2021/06/04 09:17:26;;;;;;;6.95;5.50;;;29.70;56.50;;;;;;5018935;28;20330;-70
2021/06/04 09:20:07;;;;;;;8.25;7.22;;;29.70;60.00;;;;;;5018722;28;20037;-70
2021/06/04 09:22:43;;;;;;;8.20;7.35;;;30.10;57.90;;;;;;5018933;28;20337;-70
2021/06/04 09:25:13;;;;;;;9.05;7.78;;;30.30;56.70;;;;;;5018426;28;20026;-70
2021/06/04 09:27:42;;;;;;;9.43;7.88;;;30.40;56.00;;;;;;5018923;28;20014;-70
2021/06/04 09:30:35;;;;;;;13.13;6.97;;;30.50;56.00;;;;;;5018570;28;20117;-70
2021/06/04 09:33:18;;;;;;;9.43;7.63;;;30.30;55.40;;;;;;5018448;28;20108;-70
2021/06/04 09:36:02;;;;;;;7.45;6.18;;;30.50;54.90;;;;;;5018271;28;20033;-70
2021/06/04 09:38:44;;;;;;;9.23;7.03;;;30.60;57.90;;;;;;5018238;28;20034;-70
2021/06/04 09:41:25;;;;;;;10.52;6.40;;;30.50;56.20;;;;;;5018472;28;20033;-70
2021/06/04 09:44:06;;;;;;;7.90;7.20;;;30.30;57.60;;;;;;5018371;28;20034;-70
2021/06/04 09:46:38;;;;;;;10.20;7.07;;;30.20;56.90;;;;;;5018324;28;20349;-70
2021/06/04 09:49:04;;;;;;;7.50;6.20;;;30.20;55.20;;;;;;5018292;28;20422;-70
2021/06/04 09:51:34;;;;;;;7.78;6.20;;;30.20;53.70;;;;;;5018263;28;20362;-70
2021/06/04 09:54:27;;;;;;;16.27;5.93;;;30.20;55.50;;;;;;5017855;28;20025;-70
2021/06/04 09:57:12;;;;;;;10.85;7.00;;;30.10;55.40;;;;;;5018214;28;20476;-70
2021/06/04 09:59:38;;;;;;;7.53;6.60;;;30.10;55.50;;;;;;5018173;28;20050;-70
2021/06/04 10:02:23;;;;;;;8.15;6.63;;;30.10;56.00;;;;;;5018093;28;20645;-70
2021/06/04 10:04:49;;;;;;;8.90;7.50;;;30.10;57.60;;;;;;5017709;28;20034;-70
2021/06/04 10:07:23;;;;;;;9.20;8.27;;;30.10;55.10;;;;;;5018008;28;20030;-70
2021/06/04 10:09:49;;;;;;;7.72;6.38;;;29.80;54.60;;;;;;5017590;28;20406;-70
2021/06/04 10:12:20;;;;;;;11.70;6.22;;;30.00;57.50;;;;;;5017903;28;20034;-70
2021/06/04 10:14:55;;;;;;;8.07;5.90;;;30.30;56.70;;;;;;5017513;28;20114;-70
2021/06/04 10:20:22;;;;;;;9.07;7.68;;;30.50;53.30;;;;;;5022384;28;20481;-70
2021/06/04 10:22:51;;;;;;;10.75;7.82;;;30.20;54.30;;;;;;5017263;28;20040;-70
2021/06/04 10:25:22;;;;;;;9.32;6.38;;;30.10;57.30;;;;;;5017585;28;20030;-70
2021/06/04 10:27:53;;;;;;;10.00;6.95;;;30.50;58.10;;;;;;5017360;28;20057;-70
2021/06/04 10:30:39;;;;;;;9.43;7.22;;;30.50;58.50;;;;;;5017275;28;20445;-70
2021/06/04 10:33:34;;;;;;;8.07;7.07;;;30.40;56.70;;;;;;5017195;28;20397;-70
2021/06/04 10:36:03;;;;;;;10.82;8.25;;;30.50;57.10;;;;;;5017211;28;20109;-71
2021/06/04 10:38:28;;;;;;;10.55;9.13;;;30.70;54.20;;;;;;5017506;28;20026;-70
2021/06/04 10:41:00;;;;;;;12.05;7.22;;;30.70;53.30;;;;;;5017506;28;20411;-70
2021/06/04 10:43:54;;;;;;;9.88;7.68;;;30.30;56.70;;;;;;5017129;28;20092;-70
2021/06/04 10:47:00;;;;;;;9.38;7.72;;;29.60;56.60;;;;;;5017277;28;20049;-70
2021/06/04 10:49:32;;;;;;;9.27;7.85;;;29.50;55.00;;;;;;5024019;28;20437;-70
2021/06/04 10:52:04;;;;;;;8.05;6.50;;;29.80;57.40;;;;;;5017295;28;20049;-70
2021/06/04 10:54:50;;;;;;;9.23;6.28;;;29.20;57.10;;;;;;5016954;28;20030;-70
2021/06/04 10:57:34;;;;;;;11.50;7.57;;;29.00;58.20;;;;;;5017027;28;20022;-70
2021/06/04 11:00:06;;;;;;;8.60;7.37;;;29.40;58.70;;;;;;5017303;28;20054;-69
2021/06/04 11:02:43;;;;;;;8.95;6.13;;;30.10;58.60;;;;;;5017236;28;20044;-70
2021/06/04 11:05:45;;;;;;;11.82;7.88;;;30.30;56.20;;;;;;5017111;28;20121;-71
2021/06/04 11:08:47;;;;;;;10.68;7.85;;;30.20;56.00;;;;;;5016675;28;20026;-70
2021/06/04 11:11:24;;;;;;;9.00;7.82;;;29.40;57.70;;;;;;5016868;28;20018;-70
2021/06/04 11:14:05;;;;;;;10.93;8.57;;;29.60;58.80;;;;;;5017014;28;20041;-70
2021/06/04 11:17:17;;;;;;;9.27;7.15;;;29.80;56.60;;;;;;5016737;28;20030;-69
2021/06/04 11:19:48;;;;;;;11.07;7.80;;;30.10;61.10;;;;;;5008411;28;20037;-70
2021/06/04 11:22:19;;;;;;;8.38;6.95;;;30.20;56.40;;;;;;5017070;28;20034;-70
2021/06/04 11:24:51;;;;;;;13.93;8.23;;;30.20;58.10;;;;;;5016959;28;20030;-70
2021/06/04 11:27:27;;;;;;;9.45;6.60;;;30.20;55.20;;;;;;5016669;28;20037;-70
2021/06/04 11:29:53;;;;;;;11.10;7.93;;;30.20;60.20;;;;;;5016609;28;20112;-70
2021/06/04 11:32:29;;;;;;;12.65;6.15;;;30.30;57.20;;;;;;5016573;28;20030;-70
2021/06/04 11:34:59;;;;;;;9.68;5.97;;;30.00;57.80;;;;;;5018756;28;20037;-70
2021/06/04 11:37:55;;;;;;;9.50;5.57;;;29.30;58.20;;;;;;5020708;28;20034;-70
2021/06/04 11:40:33;;;;;;;9.77;7.90;;;28.90;61.00;;;;;;5020449;28;20113;-70
2021/06/04 11:43:14;;;;;;;9.80;6.45;;;28.50;58.40;;;;;;5020694;28;20105;-70
2021/06/04 11:45:43;;;;;;;7.65;6.70;;;28.30;61.70;;;;;;5020867;28;20079;-70
2021/06/04 11:48:20;;;;;;;13.75;7.75;;;28.60;63.10;;;;;;5020602;28;20041;-70
2021/06/04 11:50:48;;;;;;;5.43;4.78;;;29.00;59.10;;;;;;5020526;28;20042;-70
2021/06/04 11:53:18;;;;;;;8.95;8.02;;;29.10;63.30;;;;;;5020543;28;20105;-70
2021/06/04 11:55:45;;;;;;;8.82;7.40;;;28.70;57.80;;;;;;5020103;28;20044;-70
2021/06/04 11:58:29;;;;;;;10.20;5.90;;;28.30;59.70;;;;;;5020065;28;20046;-70
2021/06/04 12:01:22;;;;;;;7.70;6.90;;;28.20;61.20;;;;;;5020328;28;20039;-70
2021/06/04 12:04:00;;;;;;;12.82;7.22;;;28.00;59.00;;;;;;5020020;28;20109;-70
2021/06/04 12:06:30;;;;;;;9.43;7.28;;;27.80;61.20;;;;;;5019852;28;20064;-70
2021/06/04 12:08:59;;;;;;;8.25;6.43;;;27.60;59.80;;;;;;5019849;28;20062;-70
2021/06/04 12:11:33;;;;;;;11.45;7.50;;;27.30;62.90;;;;;;5019818;28;20033;-70
2021/06/04 12:13:59;;;;;;;9.20;7.95;;;27.00;62.80;;;;;;5019822;28;20026;-70
2021/06/04 12:16:29;;;;;;;9.88;8.25;;;26.80;62.70;;;;;;5019674;28;20045;-70
2021/06/04 12:19:22;;;;;;;8.27;7.18;;;26.60;62.00;;;;;;5020071;28;20083;-70
2021/06/04 12:21:48;;;;;;;10.55;7.63;;;26.80;62.60;;;;;;5019454;28;20081;-70
2021/06/04 12:24:19;;;;;;;10.00;6.75;;;26.90;61.10;;;;;;5019991;28;20038;-70
2021/06/04 12:26:53;;;;;;;8.32;6.30;;;27.10;63.40;;;;;;5019486;28;20453;-70
2021/06/04 12:29:22;;;;;;;9.45;7.35;;;27.30;65.10;;;;;;5019459;28;20037;-70
2021/06/04 12:32:00;;;;;;;8.45;7.65;;;27.20;61.90;;;;;;5019472;28;20062;-70
2021/06/04 12:34:38;;;;;;;14.35;8.40;;;27.10;60.60;;;;;;5019405;28;20113;-70
2021/06/04 12:37:22;;;;;;;10.93;7.93;;;27.10;59.80;;;;;;5019408;28;20033;-70
2021/06/04 12:40:18;;;;;;;13.15;8.93;;;27.30;61.40;;;;;;5019777;28;20033;-70
2021/06/04 12:42:49;;;;;;;7.90;7.03;;;27.50;59.40;;;;;;5019638;28;20026;-69
2021/06/04 12:45:25;;;;;;;9.70;7.82;;;27.70;62.10;;;;;;5019601;28;20034;-70
2021/06/04 12:48:06;;;;;;;10.05;7.13;;;27.70;60.30;;;;;;5019159;28;20492;-70
2021/06/04 12:50:34;;;;;;;11.20;7.55;;;27.90;61.60;;;;;;5019438;28;20084;-70
2021/06/04 12:53:18;;;;;;;6.57;5.50;;;28.10;59.90;;;;;;5019449;28;20026;-70
2021/06/04 12:55:47;;;;;;;8.40;7.35;;;28.30;62.80;;;;;;5019011;28;20030;-70
2021/06/04 12:58:19;;;;;;;8.98;6.95;;;28.30;58.70;;;;;;5019300;28;20096;-70
2021/06/04 13:00:45;;;;;;;9.05;7.43;;;28.10;58.90;;;;;;5019259;28;20088;-70
2021/06/04 13:03:27;;;;;;;8.68;6.15;;;28.10;58.90;;;;;;5019227;28;20019;-70
2021/06/04 13:05:56;;;;;;;9.05;7.50;;;28.10;59.30;;;;;;5019145;28;20033;-70